To NAV CANADA Home Page Login to a new session Search on AWWS site Feedback and Comments Disclaimer Vers la page française équivalente Tips FAQ What's new on the site To the Forecasts and Observations / NOTAM section To "File a Flight Plan" website Publications and other links Update of the User's profile FIC Telephone Numbers My Weather Data Folder Route Weather Data Regional Weather Data Local Weather Data To the Forecasts and Observations / NOTAM section
Request Generated 09/02/2015 at 04:19:18 UTC . Weather information available at that time is displayed.

METAR/TAF

NORTH BATTLEFORD/SK    (show WxCam)

METAR CYQW 020400Z AUTO 05009KT 9SM CLR 15/05 A2975 RMK SLP078
DENSITY ALT 2400FT=
METAR CYQW 020300Z AUTO 04007KT 9SM CLR 15/06 A2975 RMK SLP080
DENSITY ALT 2400FT=
METAR CYQW 020200Z AUTO 04006KT 9SM CLR 17/06 A2973 RMK SLP073
DENSITY ALT 2600FT=

TAF CYQW 012338Z 0200/0212 29012G22KT P6SM SKC
BECMG 0201/0203 36006KT
BECMG 0205/0207 10012KT
RMK FCST BASED ON AUTO OBS. NXT FCST BY 020600Z=
Your time UTC time
Weather data provided by Environment Canada and NAV CANADA